Time;durP1;ratioP1;P1;durP2;ratioP2;P2;SDS_P1;SDS_P2;PMS_P1;PMS_P2;Temp;Humidity;BMP_temperature;BMP_pressure;BME280_temperature;BME280_humidity;BME280_pressure;Samples;Min_cycle;Max_cycle;Signal;HPM_P1;HPM_P2
2022/05/24 00:00:30;;;;;;;21.80;8.68;;;13.00;99.90;;;;;;5112365;28;20065;-81
2022/05/24 00:02:57;;;;;;;12.50;7.65;;;13.00;99.90;;;;;;5133252;27;20051;-81
2022/05/24 00:05:24;;;;;;;9.98;6.85;;;12.90;99.90;;;;;;5133514;27;20050;-80
2022/05/24 00:07:51;;;;;;;11.02;6.68;;;12.90;99.90;;;;;;5113882;28;20039;-81
2022/05/24 00:10:21;;;;;;;14.98;6.75;;;12.90;99.90;;;;;;5112710;28;20044;-80
2022/05/24 00:12:46;;;;;;;12.65;5.93;;;12.80;99.90;;;;;;5123745;28;20046;-81
2022/05/24 00:15:20;;;;;;;11.98;6.20;;;12.80;99.90;;;;;;5132834;27;20137;-81
2022/05/24 00:17:49;;;;;;;18.13;6.30;;;12.70;99.90;;;;;;5135289;27;20182;-82
2022/05/24 00:20:15;;;;;;;14.82;5.65;;;12.70;99.90;;;;;;5136891;27;20050;-81
2022/05/24 00:22:41;;;;;;;12.38;6.00;;;12.60;99.90;;;;;;5135666;27;20039;-81
2022/05/24 00:25:08;;;;;;;14.55;4.97;;;12.60;99.90;;;;;;5136611;27;20053;-81
2022/05/24 00:27:33;;;;;;;10.00;4.97;;;12.50;99.90;;;;;;5127336;27;20486;-81
2022/05/24 00:29:59;;;;;;;14.48;5.88;;;12.50;99.90;;;;;;5116505;28;20050;-81
2022/05/24 00:32:25;;;;;;;13.57;5.97;;;12.50;99.90;;;;;;5130361;27;20046;-81
2022/05/24 00:34:51;;;;;;;11.77;5.68;;;12.40;99.90;;;;;;5119177;27;20054;-81
2022/05/24 00:37:19;;;;;;;12.85;5.95;;;12.40;99.90;;;;;;5137010;27;20043;-81
2022/05/24 00:39:47;;;;;;;7.80;5.05;;;12.30;99.90;;;;;;5136032;27;20127;-81
2022/05/24 00:42:18;;;;;;;12.73;6.30;;;12.30;99.90;;;;;;5115982;28;20046;-81
2022/05/24 00:44:56;;;;;;;11.05;6.20;;;12.30;99.90;;;;;;5116186;27;20051;-81
2022/05/24 00:47:36;;;;;;;16.98;6.85;;;12.30;99.90;;;;;;5117105;28;20083;-81
2022/05/24 00:50:06;;;;;;;15.13;6.78;;;12.30;99.90;;;;;;5117108;27;20494;-81
2022/05/24 00:52:42;;;;;;;12.23;6.78;;;12.20;99.90;;;;;;5115893;28;20063;-81
2022/05/24 00:55:12;;;;;;;10.60;6.25;;;12.20;99.90;;;;;;5116977;28;20505;-81
2022/05/24 00:57:52;;;;;;;9.20;5.90;;;12.20;99.90;;;;;;5109022;27;20043;-81
2022/05/24 01:00:21;;;;;;;14.77;6.43;;;12.20;99.90;;;;;;5151007;27;20063;-80
2022/05/24 01:02:48;;;;;;;14.00;6.15;;;12.20;99.90;;;;;;5156110;27;20131;-81
2022/05/24 01:05:18;;;;;;;13.95;7.53;;;12.10;99.90;;;;;;5157044;27;20043;-81
2022/05/24 01:07:44;;;;;;;9.15;6.10;;;12.10;99.90;;;;;;5138695;27;20051;-81
2022/05/24 01:10:15;;;;;;;8.80;5.95;;;12.00;99.90;;;;;;5137077;27;20383;-81
2022/05/24 01:12:48;;;;;;;11.52;7.60;;;12.10;99.90;;;;;;5132746;27;20074;-81
2022/05/24 01:15:16;;;;;;;12.85;7.43;;;12.00;99.90;;;;;;5118689;27;20061;-81
2022/05/24 01:17:44;;;;;;;18.75;7.65;;;12.00;99.90;;;;;;5118554;27;20112;-81
2022/05/24 01:20:11;;;;;;;13.43;6.00;;;12.00;99.90;;;;;;5118068;27;20065;-81
2022/05/24 01:22:46;;;;;;;11.77;7.30;;;12.00;99.90;;;;;;5136794;27;20066;-81
2022/05/24 01:25:34;;;;;;;;;;;12.00;99.90;;;;;;5118836;27;20043;-81
2022/05/24 01:28:04;;;;;;;12.55;6.55;;;12.00;99.90;;;;;;5133063;27;19919;-81
2022/05/24 01:30:29;;;;;;;13.15;7.30;;;12.00;99.90;;;;;;5136404;27;20464;-81
2022/05/24 01:36:22;;;;;;;16.48;7.05;;;12.00;99.90;;;;;;5155122;27;20092;-81
2022/05/24 01:38:31;;;;;;;12.13;6.85;;;12.00;99.90;;;;;;5146985;27;20046;-80
2022/05/24 01:40:56;;;;;;;8.60;6.50;;;12.00;99.90;;;;;;5132481;27;20055;-81
2022/05/24 01:43:26;;;;;;;12.05;7.90;;;12.00;99.90;;;;;;5138251;27;20043;-80
2022/05/24 01:46:02;;;;;;;11.48;7.30;;;12.00;99.90;;;;;;5136938;27;20485;-80
2022/05/24 01:48:36;;;;;;;9.13;7.03;;;12.10;99.90;;;;;;5137621;27;20042;-80
2022/05/24 01:51:04;;;;;;;9.50;6.78;;;12.10;99.90;;;;;;5155426;27;20047;-80
2022/05/24 01:53:38;;;;;;;13.77;7.10;;;12.10;99.90;;;;;;5138741;27;20078;-81
2022/05/24 01:56:08;;;;;;;10.90;7.65;;;12.10;99.90;;;;;;5154660;27;20054;-81
2022/05/24 01:58:36;;;;;;;16.77;7.97;;;12.10;99.90;;;;;;5153763;27;20039;-81
2022/05/24 02:01:26;;;;;;;9.85;6.85;;;12.20;99.90;;;;;;5116779;27;20051;-80
2022/05/24 02:03:52;;;;;;;11.68;7.55;;;12.20;99.90;;;;;;5121285;27;20050;-81
2022/05/24 02:06:21;;;;;;;13.55;7.50;;;12.20;99.90;;;;;;5134289;27;20393;-81
2022/05/24 02:08:47;;;;;;;16.08;7.70;;;12.20;99.90;;;;;;5116238;27;20497;-81
2022/05/24 02:11:13;;;;;;;9.80;7.13;;;12.20;99.90;;;;;;5117419;27;20051;-81
2022/05/24 02:13:43;;;;;;;11.80;7.65;;;12.30;99.90;;;;;;5118031;27;20051;-81
2022/05/24 02:16:15;;;;;;;12.07;6.70;;;12.30;99.90;;;;;;5155628;27;20053;-80
2022/05/24 02:18:44;;;;;;;15.50;7.78;;;12.30;99.90;;;;;;5155071;27;20087;-81
2022/05/24 02:21:10;;;;;;;13.43;8.52;;;12.30;99.90;;;;;;5144707;27;20092;-80
2022/05/24 02:23:42;;;;;;;12.48;8.20;;;12.30;99.90;;;;;;5144098;27;20043;-81
2022/05/24 02:26:09;;;;;;;12.88;7.75;;;12.30;99.90;;;;;;5156218;27;20478;-80
2022/05/24 02:28:35;;;;;;;11.32;8.40;;;12.30;99.90;;;;;;5136230;27;20042;-81
2022/05/24 02:31:09;;;;;;;10.98;7.70;;;12.40;99.90;;;;;;5137117;27;20087;-81
2022/05/24 02:33:35;;;;;;;14.68;9.43;;;12.40;99.90;;;;;;5154674;27;20167;-80
2022/05/24 02:36:03;;;;;;;11.43;8.80;;;12.40;99.90;;;;;;5136919;27;20125;-81
2022/05/24 02:38:29;;;;;;;11.77;8.00;;;12.40;99.90;;;;;;5134580;27;20139;-81
2022/05/24 02:43:39;;;;;;;13.43;9.52;;;12.40;99.90;;;;;;5155119;27;20089;-81
2022/05/24 02:46:06;;;;;;;16.05;9.90;;;12.50;99.90;;;;;;5148722;27;20039;-81
2022/05/24 02:48:32;;;;;;;19.02;10.02;;;12.50;99.90;;;;;;5135243;27;20122;-81
2022/05/24 02:50:57;;;;;;;14.27;10.70;;;12.50;99.90;;;;;;5134649;27;20113;-80
2022/05/24 02:53:25;;;;;;;16.67;11.25;;;12.50;99.90;;;;;;5145265;27;20043;-81
2022/05/24 02:55:50;;;;;;;18.83;12.60;;;12.50;99.90;;;;;;5132243;27;20122;-80
2022/05/24 02:58:16;;;;;;;21.52;13.07;;;12.60;99.90;;;;;;5136374;27;20191;-80
2022/05/24 03:00:43;;;;;;;17.50;13.68;;;12.60;99.90;;;;;;5135408;27;20053;-81
2022/05/24 03:03:09;;;;;;;33.78;17.45;;;12.60;99.90;;;;;;5155372;27;20046;-80
2022/05/24 03:05:35;;;;;;;30.90;17.75;;;12.70;99.90;;;;;;5134786;27;20481;-80
2022/05/24 03:10:45;;;;;;;34.67;19.75;;;12.70;99.90;;;;;;5117803;27;20104;-80
2022/05/24 03:15:55;;;;;;;31.98;18.42;;;12.80;99.90;;;;;;5132145;27;20062;-81
2022/05/24 03:18:22;;;;;;;30.35;20.52;;;12.80;99.90;;;;;;5118901;27;20099;-81
2022/05/24 03:20:49;;;;;;;27.13;19.45;;;12.80;99.90;;;;;;5153862;27;20122;-81
2022/05/24 03:23:16;;;;;;;35.22;21.50;;;12.90;99.90;;;;;;5155352;27;20095;-81
2022/05/24 03:25:42;;;;;;;32.70;20.77;;;12.90;99.90;;;;;;5152349;27;20035;-81
2022/05/24 03:28:08;;;;;;;30.42;20.95;;;12.90;99.90;;;;;;5132018;27;20079;-81
2022/05/24 03:30:41;;;;;;;39.90;22.52;;;12.90;99.90;;;;;;5134517;28;20099;-81
2022/05/24 03:33:07;;;;;;;37.40;23.95;;;13.00;99.90;;;;;;5133456;27;20051;-81
2022/05/24 03:35:32;;;;;;;49.08;25.25;;;13.00;99.90;;;;;;5099395;28;20118;-81
2022/05/24 03:37:58;;;;;;;45.08;26.88;;;13.00;99.90;;;;;;5116027;27;20585;-82
2022/05/24 03:40:24;;;;;;;36.75;23.35;;;13.00;99.90;;;;;;5139736;27;20043;-81
2022/05/24 03:42:54;;;;;;;40.00;23.10;;;13.10;99.90;;;;;;5134409;28;20071;-82
2022/05/24 03:45:20;;;;;;;54.72;27.92;;;13.10;99.90;;;;;;5133068;28;20525;-82
2022/05/24 03:47:46;;;;;;;38.65;23.98;;;13.10;99.90;;;;;;5133376;28;20509;-82
2022/05/24 03:50:13;;;;;;;37.33;24.10;;;13.10;99.90;;;;;;5134360;27;20039;-81
2022/05/24 03:52:39;;;;;;;36.17;23.38;;;13.10;99.90;;;;;;5119905;27;20480;-81
2022/05/24 03:55:05;;;;;;;39.50;25.33;;;13.20;99.90;;;;;;5140467;27;20039;-81
2022/05/24 04:00:18;;;;;;;37.58;21.73;;;13.20;99.90;;;;;;5137387;27;20049;-82
2022/05/24 04:02:44;;;;;;;39.03;21.35;;;13.10;99.90;;;;;;5139684;27;20089;-82
2022/05/24 04:05:11;;;;;;;38.95;21.02;;;13.10;99.90;;;;;;5144363;27;20039;-81
2022/05/24 04:07:38;;;;;;;27.42;19.02;;;13.10;99.90;;;;;;5123916;27;20043;-82
2022/05/24 04:10:06;;;;;;;27.33;16.90;;;13.10;99.90;;;;;;5124575;27;20107;-81
2022/05/24 04:12:32;;;;;;;25.60;16.67;;;13.10;99.90;;;;;;5141564;27;20039;-81
2022/05/24 04:14:58;;;;;;;36.95;18.83;;;13.10;99.90;;;;;;5138831;27;20521;-81
2022/05/24 04:17:24;;;;;;;26.73;17.67;;;13.10;99.90;;;;;;5136288;27;20080;-81
2022/05/24 04:19:50;;;;;;;22.92;15.93;;;13.10;99.90;;;;;;5119720;27;20111;-81
2022/05/24 04:22:15;;;;;;;20.45;14.93;;;13.10;99.90;;;;;;5137161;27;20027;-81
2022/05/24 04:24:41;;;;;;;20.52;15.52;;;13.10;99.90;;;;;;5133779;27;20495;-82
2022/05/24 04:27:07;;;;;;;22.20;16.00;;;13.10;99.90;;;;;;5138315;27;20050;-81
2022/05/24 04:29:33;;;;;;;24.25;15.20;;;13.10;99.90;;;;;;5157724;27;20122;-80
2022/05/24 04:31:59;;;;;;;23.13;14.98;;;13.10;99.90;;;;;;5156911;27;20118;-80
2022/05/24 04:34:25;;;;;;;25.40;14.40;;;13.10;99.90;;;;;;5159153;27;20046;-81
2022/05/24 04:36:50;;;;;;;22.80;13.45;;;13.10;99.90;;;;;;5126959;27;20039;-80
2022/05/24 04:39:17;;;;;;;24.08;14.20;;;13.10;99.90;;;;;;5120058;27;20039;-80
2022/05/24 04:44:28;;;;;;;20.67;13.95;;;13.10;99.90;;;;;;5136535;27;20099;-80
2022/05/24 04:47:09;;;;;;;25.75;13.40;;;13.10;99.90;;;;;;5138391;27;20121;-80
2022/05/24 04:49:41;;;;;;;28.13;15.13;;;13.10;99.90;;;;;;5137611;27;20043;-80
2022/05/24 04:52:08;;;;;;;21.77;14.43;;;13.10;99.90;;;;;;5118622;27;20605;-80
2022/05/24 04:54:34;;;;;;;18.90;13.43;;;13.10;99.90;;;;;;5119183;27;20148;-80
2022/05/24 04:57:00;;;;;;;26.35;14.63;;;13.10;99.90;;;;;;5142300;27;20043;-77
2022/05/24 04:59:26;;;;;;;24.45;14.27;;;13.10;99.90;;;;;;5152226;27;20075;-77
2022/05/24 05:01:52;;;;;;;24.98;14.25;;;13.20;99.90;;;;;;5136832;27;20101;-77
2022/05/24 05:04:19;;;;;;;23.88;13.18;;;13.10;99.90;;;;;;5128838;27;20054;-77
2022/05/24 05:06:46;;;;;;;22.42;13.50;;;13.20;99.90;;;;;;5141024;27;20052;-77
2022/05/24 05:09:13;;;;;;;19.13;13.18;;;13.20;99.90;;;;;;5144634;27;20034;-77
2022/05/24 05:11:39;;;;;;;21.08;14.25;;;13.20;99.90;;;;;;5135241;27;20548;-77
2022/05/24 05:14:06;;;;;;;22.05;14.85;;;13.20;99.90;;;;;;5138976;27;20139;-77
2022/05/24 05:16:32;;;;;;;25.90;14.18;;;13.30;99.90;;;;;;5136961;27;20472;-77
2022/05/24 05:18:58;;;;;;;28.48;14.20;;;13.30;99.90;;;;;;5138001;27;20082;-76
2022/05/24 05:21:27;;;;;;;20.85;13.93;;;13.30;99.90;;;;;;5137371;27;20047;-77
2022/05/24 05:23:53;;;;;;;24.95;14.82;;;13.30;99.90;;;;;;5138847;27;20047;-77
2022/05/24 05:26:19;;;;;;;21.55;13.73;;;13.30;99.90;;;;;;5135921;27;20043;-77
2022/05/24 05:28:45;;;;;;;26.08;14.10;;;13.30;99.90;;;;;;5149730;27;20049;-79
2022/05/24 05:31:24;;;;;;;24.50;14.10;;;13.30;99.90;;;;;;5134469;27;20053;-78
2022/05/24 05:33:51;;;;;;;50.22;17.25;;;13.30;99.90;;;;;;5102576;27;20402;-78
2022/05/24 05:36:18;;;;;;;28.60;16.17;;;13.30;99.90;;;;;;5136273;27;20509;-78
2022/05/24 05:38:48;;;;;;;21.67;14.18;;;13.30;99.90;;;;;;5101504;27;20086;-80
2022/05/24 05:41:19;;;;;;;28.25;14.40;;;13.20;99.90;;;;;;5135337;27;20042;-79
2022/05/24 05:43:45;;;;;;;31.90;14.48;;;13.20;99.90;;;;;;5136646;27;20046;-78
2022/05/24 05:46:13;;;;;;;24.17;13.65;;;13.20;99.90;;;;;;5156243;27;20146;-79
2022/05/24 05:48:39;;;;;;;23.60;13.50;;;13.10;99.90;;;;;;5120993;27;20509;-79
2022/05/24 05:51:07;;;;;;;43.53;17.35;;;13.10;99.90;;;;;;5138698;27;20432;-79
2022/05/24 05:53:33;;;;;;;24.00;15.02;;;13.10;99.90;;;;;;5154587;27;20050;-79
2022/05/24 05:55:59;;;;;;;22.88;16.33;;;13.10;99.90;;;;;;5135872;27;20050;-79
2022/05/24 05:58:25;;;;;;;38.00;19.80;;;13.10;99.90;;;;;;5143256;27;20039;-80
2022/05/24 06:00:51;;;;;;;73.03;24.85;;;13.10;99.90;;;;;;5134896;27;20095;-80
2022/05/24 06:03:18;;;;;;;23.23;14.52;;;13.10;99.90;;;;;;5135949;27;20125;-80
2022/05/24 06:05:47;;;;;;;43.55;18.10;;;13.10;99.90;;;;;;5117614;27;20051;-81
2022/05/24 06:08:13;;;;;;;29.35;17.40;;;13.10;99.90;;;;;;5116459;27;20042;-83
2022/05/24 06:10:39;;;;;;;38.15;19.08;;;13.00;99.90;;;;;;5117633;27;20043;-84
2022/05/24 06:13:06;;;;;;;50.55;21.48;;;13.10;99.90;;;;;;5117518;27;20042;-84
2022/05/24 06:15:33;;;;;;;29.25;19.90;;;13.10;99.90;;;;;;5137185;27;20043;-83
2022/05/24 06:17:59;;;;;;;25.50;17.92;;;13.10;99.90;;;;;;5135192;27;20139;-82
2022/05/24 06:20:30;;;;;;;35.50;18.85;;;13.10;99.90;;;;;;5118372;27;20055;-85
2022/05/24 06:22:57;;;;;;;29.20;19.13;;;13.10;99.90;;;;;;5150552;27;20038;-82
2022/05/24 06:25:26;;;;;;;39.35;20.98;;;13.00;99.90;;;;;;5153863;27;20091;-83
2022/05/24 06:27:53;;;;;;;31.52;18.40;;;13.10;99.90;;;;;;5139867;27;20042;-80
2022/05/24 06:30:20;;;;;;;31.40;18.13;;;13.20;99.90;;;;;;5127712;27;20501;-80
2022/05/24 06:32:47;;;;;;;35.90;18.85;;;13.20;99.90;;;;;;5145725;27;20043;-81
2022/05/24 06:35:13;;;;;;;29.10;17.45;;;13.20;99.90;;;;;;5123809;27;20046;-81
2022/05/24 06:37:40;;;;;;;38.25;18.70;;;13.30;99.90;;;;;;5132238;27;20047;-80
2022/05/24 06:40:12;;;;;;;29.50;15.32;;;13.30;99.90;;;;;;5143784;27;20034;-79
2022/05/24 06:42:38;;;;;;;64.03;19.50;;;13.40;99.90;;;;;;5153505;27;20515;-79
2022/05/24 06:45:05;;;;;;;29.45;12.63;;;13.40;99.90;;;;;;5125215;27;20039;-80
2022/05/24 06:47:32;;;;;;;27.95;13.95;;;13.50;99.90;;;;;;5122665;27;20095;-79
2022/05/24 06:49:59;;;;;;;23.70;11.60;;;13.50;99.90;;;;;;5153918;27;20553;-80
2022/05/24 06:52:25;;;;;;;21.35;10.95;;;13.60;99.90;;;;;;5124637;27;20044;-80
2022/05/24 06:54:53;;;;;;;19.58;8.98;;;13.60;99.90;;;;;;5134717;27;20046;-79
2022/05/24 06:57:19;;;;;;;17.63;8.23;;;13.60;99.90;;;;;;5130105;27;20055;-79
2022/05/24 07:02:31;;;;;;;8.77;4.10;;;13.70;99.90;;;;;;5118185;27;20117;-80
2022/05/24 07:05:12;;;;;;;12.38;5.05;;;13.60;99.90;;;;;;5145654;27;20043;-80
2022/05/24 07:07:39;;;;;;;11.40;4.75;;;13.60;99.90;;;;;;5153016;27;20083;-81
2022/05/24 07:10:08;;;;;;;16.45;4.82;;;13.60;99.90;;;;;;5131736;27;20565;-79
2022/05/24 07:12:34;;;;;;;11.70;4.68;;;13.60;99.90;;;;;;5103012;27;20060;-80
2022/05/24 07:15:00;;;;;;;49.22;8.90;;;13.60;99.90;;;;;;5136385;27;20047;-80
2022/05/24 07:17:26;;;;;;;11.70;5.72;;;13.60;99.90;;;;;;5138620;27;20375;-79
2022/05/24 07:19:52;;;;;;;13.45;5.28;;;13.60;99.90;;;;;;5134093;27;20103;-80
2022/05/24 07:22:19;;;;;;;12.90;4.97;;;13.60;99.90;;;;;;5152044;27;20047;-80
2022/05/24 07:24:48;;;;;;;24.00;6.10;;;13.60;99.90;;;;;;5131826;27;20058;-79
2022/05/24 07:27:16;;;;;;;21.63;6.78;;;13.60;99.90;;;;;;5126386;27;20050;-80
2022/05/24 07:29:41;;;;;;;15.88;5.65;;;13.60;99.90;;;;;;5155257;27;20042;-80
2022/05/24 07:32:08;;;;;;;21.00;5.40;;;13.60;99.90;;;;;;5147486;27;20038;-80
2022/05/24 07:34:35;;;;;;;19.77;7.13;;;13.60;99.90;;;;;;5155196;27;20109;-79
2022/05/24 07:37:02;;;;;;;14.10;5.70;;;13.50;99.90;;;;;;5107977;28;20103;-78
2022/05/24 07:39:28;;;;;;;15.52;6.32;;;13.40;99.90;;;;;;5115168;27;20062;-81
2022/05/24 07:47:19;;;;;;;23.30;7.85;;;13.20;99.90;;;;;;5134360;27;20077;-82
2022/05/24 07:49:45;;;;;;;15.50;6.60;;;13.20;99.90;;;;;;5136423;27;20046;-82
2022/05/24 07:52:10;;;;;;;17.80;7.00;;;13.20;99.90;;;;;;5135751;27;20035;-80
2022/05/24 07:54:36;;;;;;;20.83;8.10;;;13.10;99.90;;;;;;5121534;27;20485;-82
2022/05/24 07:57:03;;;;;;;34.70;9.50;;;13.10;99.90;;;;;;5153439;27;20039;-80
2022/05/24 07:59:29;;;;;;;18.67;8.48;;;13.10;99.90;;;;;;5151377;27;20057;-80
2022/05/24 08:01:55;;;;;;;25.35;8.35;;;13.10;99.90;;;;;;5118353;27;20447;-80
2022/05/24 08:04:21;;;;;;;18.40;8.45;;;13.10;99.90;;;;;;5141612;27;20043;-81
2022/05/24 08:06:47;;;;;;;12.88;7.70;;;13.10;99.90;;;;;;5133092;28;20123;-80
2022/05/24 08:09:13;;;;;;;17.00;7.60;;;13.10;99.90;;;;;;5138753;27;20030;-80
2022/05/24 08:11:39;;;;;;;28.42;10.63;;;13.20;99.90;;;;;;5137063;27;20039;-80
2022/05/24 08:14:06;;;;;;;15.45;6.97;;;13.20;99.90;;;;;;5083710;27;20399;-80
2022/05/24 08:16:33;;;;;;;17.23;6.65;;;13.20;99.90;;;;;;5152904;27;20039;-80
2022/05/24 08:19:01;;;;;;;17.40;8.00;;;13.20;99.90;;;;;;5151882;27;20112;-80
2022/05/24 08:21:27;;;;;;;17.10;6.80;;;13.20;99.90;;;;;;5153855;27;20131;-80
2022/05/24 08:23:53;;;;;;;14.57;6.68;;;13.20;99.90;;;;;;5152655;27;20039;-80
2022/05/24 08:26:18;;;;;;;23.33;6.88;;;13.30;99.90;;;;;;5131547;28;20099;-80
2022/05/24 08:28:47;;;;;;;16.50;6.50;;;13.30;99.90;;;;;;5128681;28;20126;-80
2022/05/24 08:31:13;;;;;;;15.15;7.18;;;13.40;99.90;;;;;;5098295;28;20496;-79
2022/05/24 08:33:40;;;;;;;22.15;9.77;;;13.40;99.90;;;;;;5114858;28;20494;-80
2022/05/24 08:36:06;;;;;;;24.10;11.52;;;13.40;99.90;;;;;;5114546;27;20046;-79
2022/05/24 08:38:32;;;;;;;27.15;11.65;;;13.40;99.90;;;;;;5150787;27;20566;-79
2022/05/24 08:41:02;;;;;;;19.60;10.38;;;13.30;99.90;;;;;;5156273;27;20078;-79
2022/05/24 08:43:31;;;;;;;23.67;11.25;;;13.40;99.90;;;;;;5128955;27;20061;-79
2022/05/24 08:48:55;;;;;;;26.10;12.32;;;13.40;99.90;;;;;;5136035;27;20134;-80
2022/05/24 08:51:42;;;;;;;26.13;12.32;;;13.30;99.90;;;;;;5119113;27;20379;-79
2022/05/24 08:54:13;;;;;;;18.52;10.02;;;13.30;99.90;;;;;;5118816;27;20053;-81
2022/05/24 08:56:58;;;;;;;15.75;6.72;;;13.30;99.90;;;;;;5118122;27;20107;-80
2022/05/24 08:59:23;;;;;;;10.03;3.27;;;13.20;99.90;;;;;;5109198;27;20042;-80
2022/05/24 09:01:50;;;;;;;9.90;2.28;;;13.00;99.90;;;;;;5156449;27;20406;-80
2022/05/24 09:04:17;;;;;;;7.95;2.03;;;12.90;99.90;;;;;;5138501;27;20050;-81
2022/05/24 09:06:53;;;;;;;4.95;1.90;;;12.80;99.90;;;;;;5127624;27;20142;-80
2022/05/24 09:09:31;;;;;;;7.60;2.13;;;12.70;99.90;;;;;;5135451;27;20494;-80
2022/05/24 09:12:36;;;;;;;3.60;1.80;;;12.70;99.90;;;;;;5155003;27;20163;-81
2022/05/24 09:15:34;;;;;;;6.05;2.22;;;12.70;99.90;;;;;;5118595;27;20074;-80
2022/05/24 09:18:51;;;;;;;;;;;;;;;;;;;;;
2022/05/24 09:21:21;;;;;;;4.60;1.80;;;12.90;99.90;;;;;;5122323;27;20073;-80
2022/05/24 09:24:02;;;;;;;5.72;1.98;;;12.90;99.90;;;;;;5148489;27;20065;-80
2022/05/24 09:26:34;;;;;;;6.15;2.20;;;13.00;99.90;;;;;;5123192;27;20050;-80
2022/05/24 09:29:12;;;;;;;7.82;2.00;;;13.00;99.90;;;;;;5141978;27;20032;-81
2022/05/24 09:31:56;;;;;;;5.70;1.88;;;13.10;99.90;;;;;;5116502;27;20047;-81
2022/05/24 09:34:32;;;;;;;7.20;2.13;;;13.20;99.90;;;;;;5118934;27;20494;-80
2022/05/24 09:37:23;;;;;;;6.28;1.92;;;13.30;99.90;;;;;;5136726;27;20137;-81
2022/05/24 09:40:08;;;;;;;7.45;2.35;;;13.40;99.90;;;;;;5080261;28;20056;-81
2022/05/24 09:42:37;;;;;;;3.47;1.73;;;13.50;99.90;;;;;;5090777;28;20048;-81
2022/05/24 09:45:17;;;;;;;5.97;2.08;;;13.60;99.90;;;;;;5084619;28;20127;-80
2022/05/24 09:47:43;;;;;;;5.85;2.03;;;13.70;99.90;;;;;;5075107;28;20040;-81
2022/05/24 09:50:14;;;;;;;5.10;2.65;;;13.80;99.90;;;;;;5070328;28;20079;-81
2022/05/24 09:52:41;;;;;;;3.42;2.08;;;13.90;99.90;;;;;;5080792;28;20047;-81
2022/05/24 09:55:07;;;;;;;4.38;2.17;;;14.00;99.90;;;;;;5090015;28;20081;-80
2022/05/24 09:57:33;;;;;;;6.28;3.20;;;14.00;99.90;;;;;;5092897;28;20119;-80
2022/05/24 10:00:03;;;;;;;6.47;2.33;;;14.00;99.90;;;;;;5060619;28;20145;-81
2022/05/24 10:02:31;;;;;;;10.63;3.38;;;14.00;99.90;;;;;;5058911;28;20063;-80
2022/05/24 10:04:58;;;;;;;7.35;3.05;;;14.10;99.90;;;;;;5057048;28;20095;-80
2022/05/24 10:07:31;;;;;;;14.82;2.60;;;14.30;99.90;;;;;;5066218;28;20048;-80
2022/05/24 10:10:02;;;;;;;9.57;2.75;;;14.30;99.90;;;;;;5066232;27;20578;-80
2022/05/24 10:12:59;;;;;;;4.25;2.45;;;14.30;99.90;;;;;;5142865;27;20322;-80
2022/05/24 10:15:27;;;;;;;4.22;2.38;;;14.20;99.90;;;;;;5142638;27;20117;-79
2022/05/24 10:18:30;;;;;;;11.75;1.92;;;14.10;99.90;;;;;;5137495;27;20167;-79
2022/05/24 10:20:59;;;;;;;4.75;1.33;;;13.90;99.90;;;;;;5092360;27;20066;-80
2022/05/24 10:23:43;;;;;;;5.10;1.70;;;13.70;99.90;;;;;;5142417;27;20042;-81
2022/05/24 10:26:16;;;;;;;6.47;2.00;;;13.60;99.90;;;;;;5139917;27;20050;-81
2022/05/24 10:29:09;;;;;;;7.13;2.58;;;13.60;99.90;;;;;;5135555;27;20042;-79
2022/05/24 10:32:02;;;;;;;6.30;2.30;;;13.60;99.90;;;;;;5116481;27;20050;-80
2022/05/24 10:40:59;;;;;;;11.90;2.78;;;14.10;99.90;;;;;;5142793;27;20459;-80
2022/05/24 10:43:33;;;;;;;5.00;2.95;;;14.20;99.90;;;;;;5134754;27;20544;-80
2022/05/24 10:46:08;;;;;;;4.63;2.35;;;14.20;99.90;;;;;;5135224;27;20043;-80
2022/05/24 10:48:52;;;;;;;4.25;2.58;;;14.20;99.90;;;;;;5117005;27;20103;-80
2022/05/24 10:51:28;;;;;;;3.75;2.00;;;14.20;99.90;;;;;;5116297;27;20167;-80
2022/05/24 10:54:01;;;;;;;4.38;1.67;;;14.20;99.90;;;;;;5151126;27;20401;-81
2022/05/24 10:56:44;;;;;;;3.53;1.90;;;14.20;99.90;;;;;;5152001;27;20047;-83
2022/05/24 10:59:24;;;;;;;4.30;1.42;;;14.10;99.90;;;;;;5125970;27;20082;-82
2022/05/24 11:01:56;;;;;;;4.53;1.42;;;14.00;99.90;;;;;;5116061;27;20053;-80
2022/05/24 11:04:33;;;;;;;3.33;1.42;;;14.00;99.90;;;;;;5144860;27;20047;-81
2022/05/24 11:07:10;;;;;;;7.22;1.83;;;13.90;99.90;;;;;;5135480;27;20047;-80
2022/05/24 11:09:43;;;;;;;6.13;1.60;;;13.90;99.90;;;;;;5137054;27;20043;-81
2022/05/24 11:12:21;;;;;;;5.13;1.48;;;13.90;99.90;;;;;;5115775;27;20103;-81
2022/05/24 11:14:51;;;;;;;9.40;1.42;;;13.90;99.90;;;;;;5129759;27;20043;-80
2022/05/24 11:17:18;;;;;;;2.60;1.25;;;13.90;99.90;;;;;;5130883;27;20039;-80
2022/05/24 11:19:50;;;;;;;7.68;1.30;;;14.00;99.90;;;;;;5137484;27;20471;-81
2022/05/24 11:22:16;;;;;;;9.70;1.52;;;14.00;99.90;;;;;;5133301;27;20035;-81
2022/05/24 11:24:44;;;;;;;7.25;1.55;;;14.10;99.90;;;;;;5154201;27;20440;-80
2022/05/24 11:27:15;;;;;;;3.50;1.23;;;14.20;99.90;;;;;;5149938;27;20031;-82
2022/05/24 11:29:49;;;;;;;4.15;1.38;;;14.30;99.90;;;;;;5099376;27;20046;-81
2022/05/24 11:32:39;;;;;;;6.07;1.58;;;14.30;99.90;;;;;;5114998;27;20039;-80
2022/05/24 11:35:25;;;;;;;5.43;1.38;;;14.40;99.90;;;;;;5115245;27;20051;-83
2022/05/24 11:38:08;;;;;;;4.75;1.15;;;14.40;99.90;;;;;;5125735;27;20441;-82
2022/05/24 11:40:57;;;;;;;5.40;1.35;;;14.40;99.90;;;;;;5135130;27;20505;-81
2022/05/24 11:43:35;;;;;;;5.45;0.80;;;14.40;99.90;;;;;;5135336;27;20078;-81
2022/05/24 11:46:27;;;;;;;6.38;1.20;;;14.60;99.90;;;;;;5131221;28;20070;-82
2022/05/24 11:48:54;;;;;;;7.15;0.98;;;14.80;99.90;;;;;;5117453;27;20489;-81
2022/05/24 11:51:45;;;;;;;2.83;0.65;;;14.80;99.90;;;;;;5151445;27;20035;-81
2022/05/24 11:54:19;;;;;;;6.40;1.83;;;14.70;99.90;;;;;;5135494;27;20053;-80
2022/05/24 11:57:14;;;;;;;5.88;1.35;;;14.60;99.90;;;;;;5118873;28;20123;-81
2022/05/24 11:59:40;;;;;;;4.07;1.00;;;14.50;99.90;;;;;;5095921;28;20070;-82
2022/05/24 12:02:32;;;;;;;3.38;1.10;;;14.50;99.90;;;;;;5121958;27;20486;-82
2022/05/24 12:07:56;;;;;;;2.20;0.60;;;14.40;99.90;;;;;;5114404;28;20066;-80
2022/05/24 12:10:22;;;;;;;3.17;0.80;;;14.30;99.90;;;;;;5116704;28;20039;-80
2022/05/24 12:13:11;;;;;;;7.00;1.88;;;14.20;99.90;;;;;;5117341;27;20057;-83
2022/05/24 12:15:40;;;;;;;5.50;1.40;;;14.00;99.90;;;;;;5120870;27;20042;-81
2022/05/24 12:18:06;;;;;;;5.63;1.00;;;13.80;99.90;;;;;;5138574;27;20047;-80
2022/05/24 12:20:35;;;;;;;6.53;1.42;;;13.70;99.90;;;;;;5118092;27;20041;-81
2022/05/24 12:23:06;;;;;;;6.22;1.30;;;13.70;99.90;;;;;;5119233;27;20159;-81
2022/05/24 12:26:01;;;;;;;5.43;1.20;;;13.70;99.90;;;;;;5104651;27;20047;-83
2022/05/24 12:28:35;;;;;;;5.05;1.30;;;13.80;99.90;;;;;;5157690;27;20071;-80
2022/05/24 12:31:14;;;;;;;3.72;0.98;;;13.90;99.90;;;;;;5138269;27;20099;-80
2022/05/24 12:33:57;;;;;;;5.90;1.35;;;14.00;99.90;;;;;;5137754;27;20439;-80
2022/05/24 12:36:46;;;;;;;6.40;1.42;;;14.10;99.90;;;;;;5139497;27;20045;-81
2022/05/24 12:39:16;;;;;;;4.93;1.98;;;14.10;99.90;;;;;;5147906;27;20046;-82
2022/05/24 12:41:52;;;;;;;7.68;2.15;;;14.10;99.90;;;;;;5137845;27;20039;-82
2022/05/24 12:44:19;;;;;;;4.38;1.20;;;14.10;99.90;;;;;;5138148;27;20122;-81
2022/05/24 12:46:51;;;;;;;3.03;0.70;;;14.10;99.90;;;;;;5158168;27;20110;-83
2022/05/24 12:49:22;;;;;;;2.80;0.80;;;14.00;99.90;;;;;;5110896;27;20411;-80
2022/05/24 12:51:54;;;;;;;3.92;0.98;;;13.90;99.90;;;;;;5107225;27;20054;-80
2022/05/24 12:54:30;;;;;;;1.27;0.60;;;13.80;99.90;;;;;;5135154;27;20038;-81
2022/05/24 12:57:01;;;;;;;2.75;0.70;;;13.70;99.90;;;;;;5138500;27;20133;-81
2022/05/24 12:59:37;;;;;;;6.30;0.98;;;13.70;99.90;;;;;;5131058;27;20047;-80
2022/05/24 13:02:23;;;;;;;4.07;1.25;;;13.60;99.90;;;;;;5111109;27;20057;-81
2022/05/24 13:04:49;;;;;;;6.93;1.08;;;13.60;99.90;;;;;;5155724;27;20536;-81
2022/05/24 13:07:37;;;;;;;5.35;1.33;;;13.60;99.90;;;;;;5110308;27;20118;-82
2022/05/24 13:10:11;;;;;;;3.58;0.95;;;13.70;99.90;;;;;;5140961;27;20125;-80
2022/05/24 13:12:38;;;;;;;4.35;1.27;;;13.60;99.90;;;;;;5134536;27;20494;-79
2022/05/24 13:15:07;;;;;;;4.80;1.00;;;13.60;99.90;;;;;;5150827;27;20056;-81
2022/05/24 13:17:40;;;;;;;10.57;2.08;;;13.60;99.90;;;;;;5119890;27;20504;-81
2022/05/24 13:20:08;;;;;;;4.72;1.90;;;13.50;99.90;;;;;;5154961;27;20033;-80
2022/05/24 13:22:50;;;;;;;6.20;2.05;;;13.50;99.90;;;;;;5136256;27;20050;-80
2022/05/24 13:25:22;;;;;;;3.83;1.92;;;13.50;99.90;;;;;;5133750;27;20034;-80
2022/05/24 13:27:58;;;;;;;8.27;2.97;;;13.50;99.90;;;;;;5138934;27;20039;-82
2022/05/24 13:33:44;;;;;;;5.88;2.60;;;13.70;99.90;;;;;;5119172;27;20478;-81
2022/05/24 13:36:16;;;;;;;5.90;3.03;;;13.70;99.90;;;;;;5117549;27;20528;-81